sensor_id;sensor_type;location;lat;lon;timestamp;P1;durP1;ratioP1;P2;durP2;ratioP2
54005;SDS011;39919;38.160;-122.260;2023-02-18T00:02:14;0.22;;;0.20;;
54005;SDS011;39919;38.160;-122.260;2023-02-18T00:04:46;0.30;;;0.20;;
54005;SDS011;39919;38.160;-122.260;2023-02-18T00:07:15;0.55;;;0.20;;
54005;SDS011;39919;38.160;-122.260;2023-02-18T00:09:44;0.32;;;0.13;;
54005;SDS011;39919;38.160;-122.260;2023-02-18T00:12:18;0.30;;;0.10;;
54005;SDS011;39919;38.160;-122.260;2023-02-18T00:14:47;0.40;;;0.10;;
54005;SDS011;39919;38.160;-122.260;2023-02-18T00:17:16;0.60;;;0.20;;
54005;SDS011;39919;38.160;-122.260;2023-02-18T00:19:47;0.28;;;0.10;;
54005;SDS011;39919;38.160;-122.260;2023-02-18T00:22:18;1.05;;;0.10;;
54005;SDS011;39919;38.160;-122.260;2023-02-18T00:24:47;1.05;;;0.30;;
54005;SDS011;39919;38.160;-122.260;2023-02-18T00:27:16;0.50;;;0.20;;
54005;SDS011;39919;38.160;-122.260;2023-02-18T00:29:45;0.20;;;0.10;;
54005;SDS011;39919;38.160;-122.260;2023-02-18T00:32:15;2.67;;;0.10;;
54005;SDS011;39919;38.160;-122.260;2023-02-18T00:34:50;1.20;;;0.10;;
54005;SDS011;39919;38.160;-122.260;2023-02-18T00:37:19;0.60;;;0.20;;
54005;SDS011;39919;38.160;-122.260;2023-02-18T00:39:58;3.65;;;0.10;;
54005;SDS011;39919;38.160;-122.260;2023-02-18T00:42:29;4.32;;;0.22;;
54005;SDS011;39919;38.160;-122.260;2023-02-18T00:45:02;0.63;;;0.10;;
54005;SDS011;39919;38.160;-122.260;2023-02-18T00:47:34;1.52;;;0.13;;
54005;SDS011;39919;38.160;-122.260;2023-02-18T00:50:09;0.20;;;0.10;;
54005;SDS011;39919;38.160;-122.260;2023-02-18T00:52:38;2.15;;;0.10;;
54005;SDS011;39919;38.160;-122.260;2023-02-18T00:55:19;0.10;;;0.08;;
54005;SDS011;39919;38.160;-122.260;2023-02-18T00:57:51;1.63;;;0.10;;
54005;SDS011;39919;38.160;-122.260;2023-02-18T01:00:23;3.40;;;0.10;;
54005;SDS011;39919;38.160;-122.260;2023-02-18T01:02:52;1.70;;;0.10;;
54005;SDS011;39919;38.160;-122.260;2023-02-18T01:05:23;0.75;;;0.08;;
54005;SDS011;39919;38.160;-122.260;2023-02-18T01:07:55;0.47;;;0.10;;
54005;SDS011;39919;38.160;-122.260;2023-02-18T01:10:27;0.55;;;0.10;;
54005;SDS011;39919;38.160;-122.260;2023-02-18T01:13:07;0.40;;;0.10;;
54005;SDS011;39919;38.160;-122.260;2023-02-18T01:15:43;0.85;;;0.10;;
54005;SDS011;39919;38.160;-122.260;2023-02-18T01:18:12;0.10;;;0.10;;
54005;SDS011;39919;38.160;-122.260;2023-02-18T01:20:44;0.57;;;0.10;;
54005;SDS011;39919;38.160;-122.260;2023-02-18T01:23:16;0.13;;;0.10;;
54005;SDS011;39919;38.160;-122.260;2023-02-18T01:25:48;0.60;;;0.10;;
54005;SDS011;39919;38.160;-122.260;2023-02-18T01:28:17;1.95;;;0.10;;
54005;SDS011;39919;38.160;-122.260;2023-02-18T01:30:50;0.10;;;0.10;;
54005;SDS011;39919;38.160;-122.260;2023-02-18T01:33:22;0.60;;;0.20;;
54005;SDS011;39919;38.160;-122.260;2023-02-18T01:36:02;0.10;;;0.10;;
54005;SDS011;39919;38.160;-122.260;2023-02-18T01:38:32;0.10;;;0.00;;
54005;SDS011;39919;38.160;-122.260;2023-02-18T01:41:01;0.03;;;0.00;;
54005;SDS011;39919;38.160;-122.260;2023-02-18T01:43:33;0.08;;;0.00;;
54005;SDS011;39919;38.160;-122.260;2023-02-18T01:46:10;0.32;;;0.08;;
54005;SDS011;39919;38.160;-122.260;2023-02-18T01:48:50;0.10;;;0.00;;
54005;SDS011;39919;38.160;-122.260;2023-02-18T01:51:24;0.10;;;0.10;;
54005;SDS011;39919;38.160;-122.260;2023-02-18T01:53:57;1.10;;;0.10;;
54005;SDS011;39919;38.160;-122.260;2023-02-18T01:56:29;2.20;;;0.10;;
54005;SDS011;39919;38.160;-122.260;2023-02-18T01:59:02;0.90;;;0.20;;
54005;SDS011;39919;38.160;-122.260;2023-02-18T02:01:36;0.57;;;0.10;;
54005;SDS011;39919;38.160;-122.260;2023-02-18T02:04:08;0.45;;;0.20;;
54005;SDS011;39919;38.160;-122.260;2023-02-18T02:06:40;0.55;;;0.20;;
54005;SDS011;39919;38.160;-122.260;2023-02-18T02:09:11;0.30;;;0.15;;
54005;SDS011;39919;38.160;-122.260;2023-02-18T02:14:44;1.58;;;0.10;;
54005;SDS011;39919;38.160;-122.260;2023-02-18T02:17:25;0.50;;;0.20;;
54005;SDS011;39919;38.160;-122.260;2023-02-18T02:20:27;1.52;;;0.30;;
54005;SDS011;39919;38.160;-122.260;2023-02-18T02:23:32;1.23;;;0.35;;
54005;SDS011;39919;38.160;-122.260;2023-02-18T02:29:26;2.05;;;0.20;;
54005;SDS011;39919;38.160;-122.260;2023-02-18T02:32:33;0.85;;;0.30;;
54005;SDS011;39919;38.160;-122.260;2023-02-18T02:35:21;1.25;;;0.20;;
54005;SDS011;39919;38.160;-122.260;2023-02-18T02:37:58;1.70;;;0.40;;
54005;SDS011;39919;38.160;-122.260;2023-02-18T02:40:42;0.45;;;0.20;;
54005;SDS011;39919;38.160;-122.260;2023-02-18T02:43:17;3.08;;;0.20;;
54005;SDS011;39919;38.160;-122.260;2023-02-18T02:45:58;0.45;;;0.15;;
54005;SDS011;39919;38.160;-122.260;2023-02-18T02:48:32;8.13;;;1.00;;
54005;SDS011;39919;38.160;-122.260;2023-02-18T02:51:10;2.13;;;0.20;;
54005;SDS011;39919;38.160;-122.260;2023-02-18T02:53:44;9.32;;;0.52;;
54005;SDS011;39919;38.160;-122.260;2023-02-18T02:56:18;1.17;;;0.20;;
54005;SDS011;39919;38.160;-122.260;2023-02-18T02:58:51;4.38;;;0.20;;
54005;SDS011;39919;38.160;-122.260;2023-02-18T03:01:32;3.67;;;0.30;;
54005;SDS011;39919;38.160;-122.260;2023-02-18T03:07:17;2.03;;;0.30;;
54005;SDS011;39919;38.160;-122.260;2023-02-18T03:10:16;5.55;;;0.47;;
54005;SDS011;39919;38.160;-122.260;2023-02-18T03:12:58;2.15;;;0.30;;
54005;SDS011;39919;38.160;-122.260;2023-02-18T03:15:46;1.00;;;0.30;;
54005;SDS011;39919;38.160;-122.260;2023-02-18T03:18:24;5.05;;;0.20;;
54005;SDS011;39919;38.160;-122.260;2023-02-18T03:21:03;2.38;;;0.32;;
54005;SDS011;39919;38.160;-122.260;2023-02-18T03:23:52;4.22;;;0.30;;
54005;SDS011;39919;38.160;-122.260;2023-02-18T03:26:25;0.73;;;0.57;;
54005;SDS011;39919;38.160;-122.260;2023-02-18T03:29:06;0.60;;;0.20;;
54005;SDS011;39919;38.160;-122.260;2023-02-18T03:31:51;2.60;;;0.20;;
54005;SDS011;39919;38.160;-122.260;2023-02-18T03:34:24;0.43;;;0.10;;
54005;SDS011;39919;38.160;-122.260;2023-02-18T03:37:01;0.95;;;0.25;;
54005;SDS011;39919;38.160;-122.260;2023-02-18T03:39:40;3.55;;;0.38;;
54005;SDS011;39919;38.160;-122.260;2023-02-18T03:42:14;0.47;;;0.20;;
54005;SDS011;39919;38.160;-122.260;2023-02-18T03:44:45;1.90;;;0.20;;
54005;SDS011;39919;38.160;-122.260;2023-02-18T03:47:14;4.40;;;0.77;;
54005;SDS011;39919;38.160;-122.260;2023-02-18T03:49:46;2.42;;;0.20;;
54005;SDS011;39919;38.160;-122.260;2023-02-18T03:52:16;2.78;;;0.20;;
54005;SDS011;39919;38.160;-122.260;2023-02-18T03:54:49;1.70;;;0.30;;
54005;SDS011;39919;38.160;-122.260;2023-02-18T03:57:18;11.30;;;0.28;;
54005;SDS011;39919;38.160;-122.260;2023-02-18T03:59:48;4.10;;;0.20;;
54005;SDS011;39919;38.160;-122.260;2023-02-18T04:02:19;0.93;;;0.20;;
54005;SDS011;39919;38.160;-122.260;2023-02-18T04:04:49;2.67;;;0.10;;
54005;SDS011;39919;38.160;-122.260;2023-02-18T04:07:21;5.38;;;0.60;;
54005;SDS011;39919;38.160;-122.260;2023-02-18T04:09:52;3.65;;;0.20;;
54005;SDS011;39919;38.160;-122.260;2023-02-18T04:12:23;2.88;;;0.70;;
54005;SDS011;39919;38.160;-122.260;2023-02-18T04:14:52;4.57;;;0.57;;
54005;SDS011;39919;38.160;-122.260;2023-02-18T04:17:22;5.55;;;0.40;;
54005;SDS011;39919;38.160;-122.260;2023-02-18T04:19:51;4.53;;;0.65;;
54005;SDS011;39919;38.160;-122.260;2023-02-18T04:22:20;2.95;;;0.40;;
54005;SDS011;39919;38.160;-122.260;2023-02-18T04:24:51;4.55;;;0.43;;
54005;SDS011;39919;38.160;-122.260;2023-02-18T04:27:21;4.25;;;0.50;;
54005;SDS011;39919;38.160;-122.260;2023-02-18T04:29:50;1.55;;;0.20;;
54005;SDS011;39919;38.160;-122.260;2023-02-18T04:32:23;1.85;;;0.43;;
54005;SDS011;39919;38.160;-122.260;2023-02-18T04:34:52;4.90;;;0.60;;
54005;SDS011;39919;38.160;-122.260;2023-02-18T04:37:24;1.58;;;0.50;;
54005;SDS011;39919;38.160;-122.260;2023-02-18T04:39:58;2.30;;;0.40;;
54005;SDS011;39919;38.160;-122.260;2023-02-18T04:42:27;2.08;;;1.27;;
54005;SDS011;39919;38.160;-122.260;2023-02-18T04:44:59;4.80;;;0.98;;
54005;SDS011;39919;38.160;-122.260;2023-02-18T04:47:31;10.18;;;1.80;;
54005;SDS011;39919;38.160;-122.260;2023-02-18T04:50:04;13.00;;;4.88;;
54005;SDS011;39919;38.160;-122.260;2023-02-18T04:52:36;12.10;;;4.50;;
54005;SDS011;39919;38.160;-122.260;2023-02-18T04:55:11;7.03;;;2.15;;
54005;SDS011;39919;38.160;-122.260;2023-02-18T04:57:40;7.60;;;1.60;;
54005;SDS011;39919;38.160;-122.260;2023-02-18T05:00:09;10.30;;;1.50;;
54005;SDS011;39919;38.160;-122.260;2023-02-18T05:02:43;5.70;;;1.08;;
54005;SDS011;39919;38.160;-122.260;2023-02-18T05:05:15;5.72;;;1.25;;
54005;SDS011;39919;38.160;-122.260;2023-02-18T05:07:51;6.35;;;1.25;;
54005;SDS011;39919;38.160;-122.260;2023-02-18T05:10:27;4.15;;;1.63;;
54005;SDS011;39919;38.160;-122.260;2023-02-18T05:12:56;2.17;;;1.33;;
54005;SDS011;39919;38.160;-122.260;2023-02-18T05:15:25;11.32;;;2.88;;
54005;SDS011;39919;38.160;-122.260;2023-02-18T05:17:55;10.43;;;3.22;;
54005;SDS011;39919;38.160;-122.260;2023-02-18T05:20:27;9.60;;;3.63;;
54005;SDS011;39919;38.160;-122.260;2023-02-18T05:22:56;8.73;;;4.25;;
54005;SDS011;39919;38.160;-122.260;2023-02-18T05:25:27;8.43;;;3.03;;
54005;SDS011;39919;38.160;-122.260;2023-02-18T05:27:56;7.28;;;2.80;;
54005;SDS011;39919;38.160;-122.260;2023-02-18T05:30:28;8.65;;;3.47;;
54005;SDS011;39919;38.160;-122.260;2023-02-18T05:32:57;10.93;;;3.80;;
54005;SDS011;39919;38.160;-122.260;2023-02-18T05:35:26;9.63;;;4.30;;
54005;SDS011;39919;38.160;-122.260;2023-02-18T05:37:55;9.25;;;3.83;;
54005;SDS011;39919;38.160;-122.260;2023-02-18T05:40:28;9.02;;;3.45;;
54005;SDS011;39919;38.160;-122.260;2023-02-18T05:42:58;7.97;;;2.90;;
54005;SDS011;39919;38.160;-122.260;2023-02-18T05:45:29;7.68;;;2.92;;
54005;SDS011;39919;38.160;-122.260;2023-02-18T05:47:58;8.32;;;2.20;;
54005;SDS011;39919;38.160;-122.260;2023-02-18T05:50:30;7.65;;;2.50;;
54005;SDS011;39919;38.160;-122.260;2023-02-18T05:53:00;6.00;;;2.67;;
54005;SDS011;39919;38.160;-122.260;2023-02-18T05:55:31;12.80;;;3.30;;
54005;SDS011;39919;38.160;-122.260;2023-02-18T05:58:07;6.85;;;2.00;;
54005;SDS011;39919;38.160;-122.260;2023-02-18T06:00:39;6.30;;;2.40;;
54005;SDS011;39919;38.160;-122.260;2023-02-18T06:03:13;7.13;;;2.85;;
54005;SDS011;39919;38.160;-122.260;2023-02-18T06:05:42;12.13;;;2.95;;
54005;SDS011;39919;38.160;-122.260;2023-02-18T06:08:12;6.90;;;2.42;;
54005;SDS011;39919;38.160;-122.260;2023-02-18T06:10:43;2.50;;;0.80;;
54005;SDS011;39919;38.160;-122.260;2023-02-18T06:13:12;10.10;;;2.42;;
54005;SDS011;39919;38.160;-122.260;2023-02-18T06:15:41;5.13;;;1.73;;
54005;SDS011;39919;38.160;-122.260;2023-02-18T06:18:11;13.15;;;2.72;;
54005;SDS011;39919;38.160;-122.260;2023-02-18T06:20:40;9.15;;;2.33;;
54005;SDS011;39919;38.160;-122.260;2023-02-18T06:23:09;6.78;;;3.10;;
54005;SDS011;39919;38.160;-122.260;2023-02-18T06:25:38;6.43;;;1.42;;
54005;SDS011;39919;38.160;-122.260;2023-02-18T06:28:18;6.70;;;1.88;;
54005;SDS011;39919;38.160;-122.260;2023-02-18T06:33:31;3.30;;;2.00;;
54005;SDS011;39919;38.160;-122.260;2023-02-18T06:36:03;11.95;;;2.50;;
54005;SDS011;39919;38.160;-122.260;2023-02-18T06:38:36;15.25;;;2.72;;
54005;SDS011;39919;38.160;-122.260;2023-02-18T06:41:05;10.43;;;2.80;;
54005;SDS011;39919;38.160;-122.260;2023-02-18T06:43:37;6.88;;;2.97;;
54005;SDS011;39919;38.160;-122.260;2023-02-18T06:46:06;5.70;;;2.00;;
54005;SDS011;39919;38.160;-122.260;2023-02-18T06:48:38;11.07;;;2.58;;
54005;SDS011;39919;38.160;-122.260;2023-02-18T06:51:07;11.43;;;2.67;;
54005;SDS011;39919;38.160;-122.260;2023-02-18T06:53:37;12.80;;;3.58;;
54005;SDS011;39919;38.160;-122.260;2023-02-18T06:56:06;13.50;;;3.63;;
54005;SDS011;39919;38.160;-122.260;2023-02-18T06:58:37;4.57;;;2.25;;
54005;SDS011;39919;38.160;-122.260;2023-02-18T07:01:06;11.57;;;2.55;;
54005;SDS011;39919;38.160;-122.260;2023-02-18T07:03:35;4.72;;;1.77;;
54005;SDS011;39919;38.160;-122.260;2023-02-18T07:06:43;17.15;;;2.72;;
54005;SDS011;39919;38.160;-122.260;2023-02-18T07:09:21;7.53;;;2.28;;
54005;SDS011;39919;38.160;-122.260;2023-02-18T07:11:50;8.95;;;2.55;;
54005;SDS011;39919;38.160;-122.260;2023-02-18T07:14:21;6.03;;;1.77;;
54005;SDS011;39919;38.160;-122.260;2023-02-18T07:16:51;8.70;;;2.25;;
54005;SDS011;39919;38.160;-122.260;2023-02-18T07:19:23;8.00;;;1.88;;
54005;SDS011;39919;38.160;-122.260;2023-02-18T07:21:55;4.22;;;1.65;;
54005;SDS011;39919;38.160;-122.260;2023-02-18T07:24:24;7.18;;;1.98;;
54005;SDS011;39919;38.160;-122.260;2023-02-18T07:26:56;7.63;;;2.60;;
54005;SDS011;39919;38.160;-122.260;2023-02-18T07:29:27;6.15;;;2.25;;
54005;SDS011;39919;38.160;-122.260;2023-02-18T07:31:56;6.28;;;1.77;;
54005;SDS011;39919;38.160;-122.260;2023-02-18T07:34:25;5.53;;;1.20;;
54005;SDS011;39919;38.160;-122.260;2023-02-18T07:36:54;2.97;;;1.48;;
54005;SDS011;39919;38.160;-122.260;2023-02-18T07:39:28;3.38;;;0.70;;
54005;SDS011;39919;38.160;-122.260;2023-02-18T07:41:59;2.10;;;0.65;;
54005;SDS011;39919;38.160;-122.260;2023-02-18T07:44:31;5.25;;;0.75;;
54005;SDS011;39919;38.160;-122.260;2023-02-18T07:47:00;3.58;;;1.08;;
54005;SDS011;39919;38.160;-122.260;2023-02-18T07:49:36;7.00;;;0.98;;
54005;SDS011;39919;38.160;-122.260;2023-02-18T07:52:05;5.63;;;1.33;;
54005;SDS011;39919;38.160;-122.260;2023-02-18T07:54:37;3.80;;;1.08;;
54005;SDS011;39919;38.160;-122.260;2023-02-18T07:57:09;2.20;;;0.80;;
54005;SDS011;39919;38.160;-122.260;2023-02-18T07:59:42;2.78;;;0.70;;
54005;SDS011;39919;38.160;-122.260;2023-02-18T08:02:12;1.23;;;0.65;;
54005;SDS011;39919;38.160;-122.260;2023-02-18T08:04:48;4.68;;;0.82;;
54005;SDS011;39919;38.160;-122.260;2023-02-18T08:07:17;3.25;;;1.38;;
54005;SDS011;39919;38.160;-122.260;2023-02-18T08:09:48;1.77;;;0.75;;
54005;SDS011;39919;38.160;-122.260;2023-02-18T08:12:17;5.50;;;0.73;;
54005;SDS011;39919;38.160;-122.260;2023-02-18T08:14:48;3.28;;;0.70;;
54005;SDS011;39919;38.160;-122.260;2023-02-18T08:17:19;2.70;;;0.50;;
54005;SDS011;39919;38.160;-122.260;2023-02-18T08:19:48;7.13;;;0.70;;
54005;SDS011;39919;38.160;-122.260;2023-02-18T08:22:18;2.05;;;0.50;;
54005;SDS011;39919;38.160;-122.260;2023-02-18T08:24:47;5.25;;;0.80;;
54005;SDS011;39919;38.160;-122.260;2023-02-18T08:27:18;1.17;;;0.60;;
54005;SDS011;39919;38.160;-122.260;2023-02-18T08:29:49;3.08;;;0.60;;
54005;SDS011;39919;38.160;-122.260;2023-02-18T08:32:21;8.30;;;0.68;;
54005;SDS011;39919;38.160;-122.260;2023-02-18T08:34:55;2.22;;;0.65;;
54005;SDS011;39919;38.160;-122.260;2023-02-18T08:37:24;5.18;;;0.50;;
54005;SDS011;39919;38.160;-122.260;2023-02-18T08:40:10;5.82;;;0.82;;
54005;SDS011;39919;38.160;-122.260;2023-02-18T08:42:47;5.20;;;0.63;;
54005;SDS011;39919;38.160;-122.260;2023-02-18T08:45:18;5.38;;;0.93;;
54005;SDS011;39919;38.160;-122.260;2023-02-18T08:47:47;2.70;;;1.05;;
54005;SDS011;39919;38.160;-122.260;2023-02-18T08:50:16;8.00;;;1.20;;
54005;SDS011;39919;38.160;-122.260;2023-02-18T08:52:50;10.05;;;1.42;;
54005;SDS011;39919;38.160;-122.260;2023-02-18T08:55:19;2.83;;;0.70;;
54005;SDS011;39919;38.160;-122.260;2023-02-18T08:57:49;2.38;;;0.73;;
54005;SDS011;39919;38.160;-122.260;2023-02-18T09:00:21;3.33;;;0.65;;
54005;SDS011;39919;38.160;-122.260;2023-02-18T09:02:50;9.73;;;1.45;;
54005;SDS011;39919;38.160;-122.260;2023-02-18T09:05:19;5.68;;;1.80;;
54005;SDS011;39919;38.160;-122.260;2023-02-18T09:07:48;9.35;;;1.13;;
54005;SDS011;39919;38.160;-122.260;2023-02-18T09:10:18;4.68;;;1.20;;
54005;SDS011;39919;38.160;-122.260;2023-02-18T09:12:47;2.70;;;0.60;;
54005;SDS011;39919;38.160;-122.260;2023-02-18T09:15:19;3.08;;;0.30;;
54005;SDS011;39919;38.160;-122.260;2023-02-18T09:17:50;8.75;;;2.65;;
54005;SDS011;39919;38.160;-122.260;2023-02-18T09:20:19;10.00;;;1.50;;
54005;SDS011;39919;38.160;-122.260;2023-02-18T09:22:48;4.32;;;0.95;;
54005;SDS011;39919;38.160;-122.260;2023-02-18T09:25:17;1.50;;;0.55;;
54005;SDS011;39919;38.160;-122.260;2023-02-18T09:27:47;3.80;;;0.60;;
54005;SDS011;39919;38.160;-122.260;2023-02-18T09:30:16;0.93;;;0.38;;
54005;SDS011;39919;38.160;-122.260;2023-02-18T09:32:47;2.30;;;0.50;;
54005;SDS011;39919;38.160;-122.260;2023-02-18T09:35:16;3.97;;;0.77;;
54005;SDS011;39919;38.160;-122.260;2023-02-18T09:37:45;5.68;;;0.98;;
54005;SDS011;39919;38.160;-122.260;2023-02-18T09:40:20;4.47;;;0.85;;
54005;SDS011;39919;38.160;-122.260;2023-02-18T09:42:54;5.43;;;0.85;;
54005;SDS011;39919;38.160;-122.260;2023-02-18T09:45:24;5.00;;;1.00;;
54005;SDS011;39919;38.160;-122.260;2023-02-18T09:47:56;3.58;;;0.43;;
54005;SDS011;39919;38.160;-122.260;2023-02-18T09:50:25;4.63;;;0.35;;
54005;SDS011;39919;38.160;-122.260;2023-02-18T09:52:57;6.72;;;1.13;;
54005;SDS011;39919;38.160;-122.260;2023-02-18T09:55:29;5.00;;;0.40;;
54005;SDS011;39919;38.160;-122.260;2023-02-18T09:58:01;2.40;;;0.65;;
54005;SDS011;39919;38.160;-122.260;2023-02-18T10:00:32;3.17;;;0.38;;
54005;SDS011;39919;38.160;-122.260;2023-02-18T10:03:06;8.27;;;0.63;;
54005;SDS011;39919;38.160;-122.260;2023-02-18T10:05:40;2.50;;;0.30;;
54005;SDS011;39919;38.160;-122.260;2023-02-18T10:08:18;2.47;;;0.80;;
54005;SDS011;39919;38.160;-122.260;2023-02-18T10:10:49;2.03;;;0.32;;
54005;SDS011;39919;38.160;-122.260;2023-02-18T10:13:18;2.88;;;0.30;;
54005;SDS011;39919;38.160;-122.260;2023-02-18T10:15:49;4.57;;;0.65;;
54005;SDS011;39919;38.160;-122.260;2023-02-18T10:18:26;1.80;;;0.60;;
54005;SDS011;39919;38.160;-122.260;2023-02-18T10:21:03;1.92;;;1.00;;
54005;SDS011;39919;38.160;-122.260;2023-02-18T10:23:34;1.02;;;0.30;;
54005;SDS011;39919;38.160;-122.260;2023-02-18T10:26:06;4.20;;;0.40;;
54005;SDS011;39919;38.160;-122.260;2023-02-18T10:28:40;2.97;;;0.50;;
54005;SDS011;39919;38.160;-122.260;2023-02-18T10:31:10;2.40;;;0.60;;
54005;SDS011;39919;38.160;-122.260;2023-02-18T10:33:49;3.22;;;0.30;;
54005;SDS011;39919;38.160;-122.260;2023-02-18T10:36:23;6.15;;;0.52;;
54005;SDS011;39919;38.160;-122.260;2023-02-18T10:39:01;4.00;;;0.43;;
54005;SDS011;39919;38.160;-122.260;2023-02-18T10:41:44;3.60;;;0.77;;
54005;SDS011;39919;38.160;-122.260;2023-02-18T10:44:22;4.43;;;0.65;;
54005;SDS011;39919;38.160;-122.260;2023-02-18T10:47:03;1.73;;;0.30;;
54005;SDS011;39919;38.160;-122.260;2023-02-18T10:49:59;1.98;;;0.60;;
54005;SDS011;39919;38.160;-122.260;2023-02-18T10:52:35;2.90;;;0.30;;
54005;SDS011;39919;38.160;-122.260;2023-02-18T10:55:08;6.97;;;0.60;;
54005;SDS011;39919;38.160;-122.260;2023-02-18T10:57:47;8.07;;;0.75;;
54005;SDS011;39919;38.160;-122.260;2023-02-18T11:00:19;13.75;;;1.33;;
54005;SDS011;39919;38.160;-122.260;2023-02-18T11:03:01;2.67;;;0.75;;
54005;SDS011;39919;38.160;-122.260;2023-02-18T11:05:41;3.78;;;0.63;;
54005;SDS011;39919;38.160;-122.260;2023-02-18T11:08:13;3.58;;;0.63;;
54005;SDS011;39919;38.160;-122.260;2023-02-18T11:10:46;13.07;;;1.30;;
54005;SDS011;39919;38.160;-122.260;2023-02-18T11:13:17;2.22;;;0.70;;
54005;SDS011;39919;38.160;-122.260;2023-02-18T11:15:58;4.50;;;0.63;;
54005;SDS011;39919;38.160;-122.260;2023-02-18T11:21:28;6.72;;;1.10;;
54005;SDS011;39919;38.160;-122.260;2023-02-18T11:24:05;10.32;;;0.88;;
54005;SDS011;39919;38.160;-122.260;2023-02-18T11:26:36;5.72;;;0.75;;
54005;SDS011;39919;38.160;-122.260;2023-02-18T11:29:07;1.50;;;0.60;;
54005;SDS011;39919;38.160;-122.260;2023-02-18T11:31:43;2.17;;;0.75;;
54005;SDS011;39919;38.160;-122.260;2023-02-18T11:34:14;2.70;;;0.60;;
54005;SDS011;39919;38.160;-122.260;2023-02-18T11:36:48;3.35;;;0.40;;
54005;SDS011;39919;38.160;-122.260;2023-02-18T11:39:19;5.95;;;0.55;;
54005;SDS011;39919;38.160;-122.260;2023-02-18T11:41:53;5.72;;;0.60;;
54005;SDS011;39919;38.160;-122.260;2023-02-18T11:44:26;2.60;;;0.65;;
54005;SDS011;39919;38.160;-122.260;2023-02-18T11:46:59;5.72;;;0.70;;
54005;SDS011;39919;38.160;-122.260;2023-02-18T11:49:30;2.55;;;0.40;;
54005;SDS011;39919;38.160;-122.260;2023-02-18T11:52:13;1.67;;;0.50;;
54005;SDS011;39919;38.160;-122.260;2023-02-18T11:54:57;5.78;;;0.80;;
54005;SDS011;39919;38.160;-122.260;2023-02-18T11:57:28;3.80;;;0.38;;
54005;SDS011;39919;38.160;-122.260;2023-02-18T11:59:59;1.95;;;0.50;;
54005;SDS011;39919;38.160;-122.260;2023-02-18T12:02:30;2.50;;;0.63;;
54005;SDS011;39919;38.160;-122.260;2023-02-18T12:05:02;2.90;;;0.47;;
54005;SDS011;39919;38.160;-122.260;2023-02-18T12:07:40;2.47;;;0.40;;
54005;SDS011;39919;38.160;-122.260;2023-02-18T12:10:13;6.93;;;0.40;;
54005;SDS011;39919;38.160;-122.260;2023-02-18T12:12:49;2.97;;;1.38;;
54005;SDS011;39919;38.160;-122.260;2023-02-18T12:15:26;1.98;;;0.57;;
54005;SDS011;39919;38.160;-122.260;2023-02-18T12:18:24;1.80;;;0.50;;
54005;SDS011;39919;38.160;-122.260;2023-02-18T12:21:17;0.60;;;0.30;;
54005;SDS011;39919;38.160;-122.260;2023-02-18T12:24:21;7.10;;;0.40;;
54005;SDS011;39919;38.160;-122.260;2023-02-18T12:27:04;5.63;;;0.60;;
54005;SDS011;39919;38.160;-122.260;2023-02-18T12:29:42;2.38;;;0.77;;
54005;SDS011;39919;38.160;-122.260;2023-02-18T12:32:31;2.63;;;0.60;;
54005;SDS011;39919;38.160;-122.260;2023-02-18T12:35:12;3.70;;;0.80;;
54005;SDS011;39919;38.160;-122.260;2023-02-18T12:38:04;7.43;;;0.40;;
54005;SDS011;39919;38.160;-122.260;2023-02-18T12:40:53;1.45;;;0.30;;
54005;SDS011;39919;38.160;-122.260;2023-02-18T12:43:44;2.08;;;0.55;;
54005;SDS011;39919;38.160;-122.260;2023-02-18T12:52:18;1.40;;;0.32;;
54005;SDS011;39919;38.160;-122.260;2023-02-18T12:58:07;2.67;;;0.50;;
54005;SDS011;39919;38.160;-122.260;2023-02-18T13:00:46;6.63;;;0.98;;
54005;SDS011;39919;38.160;-122.260;2023-02-18T13:03:32;2.45;;;0.20;;
54005;SDS011;39919;38.160;-122.260;2023-02-18T13:09:32;8.85;;;0.90;;
54005;SDS011;39919;38.160;-122.260;2023-02-18T13:12:12;5.32;;;0.90;;
54005;SDS011;39919;38.160;-122.260;2023-02-18T13:14:50;3.83;;;0.55;;
54005;SDS011;39919;38.160;-122.260;2023-02-18T13:17:23;2.72;;;0.57;;
54005;SDS011;39919;38.160;-122.260;2023-02-18T13:19:58;1.42;;;0.30;;
54005;SDS011;39919;38.160;-122.260;2023-02-18T13:22:30;2.05;;;0.30;;
54005;SDS011;39919;38.160;-122.260;2023-02-18T13:25:00;2.58;;;0.40;;
54005;SDS011;39919;38.160;-122.260;2023-02-18T13:27:30;6.57;;;0.40;;
54005;SDS011;39919;38.160;-122.260;2023-02-18T13:30:15;3.35;;;0.57;;
54005;SDS011;39919;38.160;-122.260;2023-02-18T13:32:53;2.22;;;0.60;;
54005;SDS011;39919;38.160;-122.260;2023-02-18T13:35:32;3.63;;;0.55;;
54005;SDS011;39919;38.160;-122.260;2023-02-18T13:38:11;2.47;;;0.30;;
54005;SDS011;39919;38.160;-122.260;2023-02-18T13:40:55;3.47;;;0.57;;
54005;SDS011;39919;38.160;-122.260;2023-02-18T13:43:29;5.88;;;0.88;;
54005;SDS011;39919;38.160;-122.260;2023-02-18T13:46:07;4.53;;;0.52;;
54005;SDS011;39919;38.160;-122.260;2023-02-18T13:48:45;5.15;;;0.68;;
54005;SDS011;39919;38.160;-122.260;2023-02-18T13:51:16;8.13;;;1.40;;
54005;SDS011;39919;38.160;-122.260;2023-02-18T13:53:57;2.47;;;0.80;;
54005;SDS011;39919;38.160;-122.260;2023-02-18T13:56:31;3.47;;;1.02;;
54005;SDS011;39919;38.160;-122.260;2023-02-18T13:59:06;4.22;;;1.13;;
54005;SDS011;39919;38.160;-122.260;2023-02-18T14:01:41;6.70;;;1.35;;
54005;SDS011;39919;38.160;-122.260;2023-02-18T14:15:52;2.03;;;0.32;;
54005;SDS011;39919;38.160;-122.260;2023-02-18T14:18:53;4.90;;;0.45;;
54005;SDS011;39919;38.160;-122.260;2023-02-18T14:21:40;4.28;;;0.52;;
54005;SDS011;39919;38.160;-122.260;2023-02-18T14:24:10;5.38;;;0.43;;
54005;SDS011;39919;38.160;-122.260;2023-02-18T14:26:43;4.53;;;0.60;;
54005;SDS011;39919;38.160;-122.260;2023-02-18T14:29:15;1.80;;;0.45;;
54005;SDS011;39919;38.160;-122.260;2023-02-18T14:31:50;5.68;;;0.90;;
54005;SDS011;39919;38.160;-122.260;2023-02-18T14:37:41;3.95;;;1.33;;
54005;SDS011;39919;38.160;-122.260;2023-02-18T14:46:26;3.45;;;0.40;;
54005;SDS011;39919;38.160;-122.260;2023-02-18T14:51:55;2.72;;;0.40;;
54005;SDS011;39919;38.160;-122.260;2023-02-18T14:54:25;2.10;;;0.30;;
54005;SDS011;39919;38.160;-122.260;2023-02-18T14:56:58;0.73;;;0.30;;
54005;SDS011;39919;38.160;-122.260;2023-02-18T14:59:33;6.25;;;0.77;;
54005;SDS011;39919;38.160;-122.260;2023-02-18T15:02:09;3.97;;;0.30;;
54005;SDS011;39919;38.160;-122.260;2023-02-18T15:04:46;1.60;;;0.40;;
54005;SDS011;39919;38.160;-122.260;2023-02-18T15:07:19;2.25;;;0.70;;
54005;SDS011;39919;38.160;-122.260;2023-02-18T15:09:51;3.30;;;0.70;;
54005;SDS011;39919;38.160;-122.260;2023-02-18T15:12:21;5.03;;;1.00;;
54005;SDS011;39919;38.160;-122.260;2023-02-18T15:14:52;7.38;;;1.48;;
54005;SDS011;39919;38.160;-122.260;2023-02-18T15:17:24;7.07;;;1.42;;
54005;SDS011;39919;38.160;-122.260;2023-02-18T15:19:55;4.72;;;1.67;;
54005;SDS011;39919;38.160;-122.260;2023-02-18T15:22:28;5.40;;;1.98;;
54005;SDS011;39919;38.160;-122.260;2023-02-18T15:24:59;4.68;;;1.17;;
54005;SDS011;39919;38.160;-122.260;2023-02-18T15:27:29;1.48;;;0.68;;
54005;SDS011;39919;38.160;-122.260;2023-02-18T15:30:05;3.55;;;0.85;;
54005;SDS011;39919;38.160;-122.260;2023-02-18T15:32:45;6.90;;;1.05;;
54005;SDS011;39919;38.160;-122.260;2023-02-18T15:35:19;2.45;;;0.63;;
54005;SDS011;39919;38.160;-122.260;2023-02-18T15:37:54;11.23;;;1.10;;
54005;SDS011;39919;38.160;-122.260;2023-02-18T15:40:26;4.65;;;0.50;;